Time;durP1;ratioP1;P1;durP2;ratioP2;P2;SDS_P1;SDS_P2;PMS_P1;PMS_P2;Temp;Humidity;BMP_temperature;BMP_pressure;BME280_temperature;BME280_humidity;BME280_pressure;Samples;Min_cycle;Max_cycle;Signal;HPM_P1;HPM_P2
2022/03/27 00:02:01;;;;;;;20.42;10.57;;;;;;;8.88;100.00;102053.59;5045832;28;20024;-58
2022/03/27 00:04:26;;;;;;;13.10;9.77;;;;;;;8.83;100.00;102055.41;5045549;28;20051;-58
2022/03/27 00:06:52;;;;;;;12.40;10.15;;;;;;;8.80;100.00;102056.31;5046227;28;20926;-58
2022/03/27 00:09:17;;;;;;;11.77;9.98;;;;;;;8.77;100.00;102059.00;5047376;28;20036;-58
2022/03/27 00:11:43;;;;;;;15.48;10.93;;;;;;;8.78;100.00;102055.50;5045846;28;20032;-58
2022/03/27 00:14:08;;;;;;;11.02;9.77;;;;;;;8.64;100.00;102028.66;5045269;28;20052;-58
2022/03/27 00:16:34;;;;;;;15.60;11.20;;;;;;;8.77;100.00;102053.75;5045278;28;20850;-58
2022/03/27 00:19:00;;;;;;;14.00;9.88;;;;;;;8.74;100.00;102051.19;5045470;28;20032;-58
2022/03/27 00:21:25;;;;;;;17.45;10.40;;;;;;;8.64;100.00;102047.84;5045967;28;20882;-58
2022/03/27 00:23:52;;;;;;;12.13;9.80;;;;;;;8.64;100.00;102054.84;5046277;28;20028;-58
2022/03/27 00:26:19;;;;;;;15.07;9.93;;;;;;;8.63;100.00;102050.50;5046175;28;20036;-58
2022/03/27 00:28:44;;;;;;;12.95;9.60;;;;;;;8.65;100.00;102056.59;5047145;28;20059;-59
2022/03/27 00:31:11;;;;;;;12.93;9.68;;;;;;;8.63;100.00;102055.72;5049179;28;20031;-58
2022/03/27 00:33:37;;;;;;;12.15;10.20;;;;;;;8.56;100.00;102047.09;5031465;28;20032;-58
2022/03/27 00:36:05;;;;;;;13.38;9.38;;;;;;;8.58;100.00;102054.94;5049649;28;20035;-58
2022/03/27 00:38:32;;;;;;;14.63;10.27;;;;;;;8.48;100.00;102042.88;5049134;28;20093;-58
2022/03/27 00:40:58;;;;;;;34.45;9.32;;;;;;;8.54;100.00;102048.03;5049316;28;20031;-58
2022/03/27 00:43:25;;;;;;;17.30;9.50;;;;;;;8.34;100.00;102019.50;5049058;28;20039;-58
2022/03/27 00:45:51;;;;;;;13.27;9.85;;;;;;;8.45;100.00;102037.69;5049021;28;20071;-58
2022/03/27 00:48:18;;;;;;;12.52;10.20;;;;;;;8.45;100.00;102040.31;5048872;28;20031;-58
2022/03/27 00:50:44;;;;;;;18.65;10.45;;;;;;;8.32;100.00;102026.50;5050037;28;20031;-58
2022/03/27 00:53:09;;;;;;;12.57;9.57;;;;;;;8.35;100.00;102042.19;5048908;28;20035;-58
2022/03/27 00:55:35;;;;;;;11.55;9.35;;;;;;;8.36;100.00;102038.69;5049516;28;20841;-58
2022/03/27 00:58:01;;;;;;;12.73;8.98;;;;;;;8.35;100.00;102041.34;5048710;28;20028;-58
2022/03/27 01:00:39;;;;;;;11.45;9.10;;;;;;;8.29;100.00;102044.00;5048387;28;20966;-58
2022/03/27 01:03:13;;;;;;;12.30;9.75;;;;;;;8.12;100.00;102023.28;5050042;28;20058;-58
2022/03/27 01:05:39;;;;;;;14.95;9.77;;;;;;;8.19;100.00;102038.88;5049165;28;20055;-58
2022/03/27 01:08:06;;;;;;;12.20;9.25;;;;;;;8.20;100.00;102038.00;5048715;28;20089;-58
2022/03/27 01:10:32;;;;;;;11.98;8.95;;;;;;;8.18;100.00;102033.66;5031265;28;20031;-59
2022/03/27 01:12:58;;;;;;;13.27;8.98;;;;;;;8.12;100.00;102037.25;5048475;28;20954;-58
2022/03/27 01:15:27;;;;;;;11.32;9.25;;;;;;;7.95;100.00;102009.56;5048254;28;20137;-58
2022/03/27 01:17:53;;;;;;;18.52;9.20;;;;;;;8.00;100.00;102018.22;5048180;28;20154;-58
2022/03/27 01:20:23;;;;;;;12.90;9.30;;;;;;;7.85;100.00;102003.59;5030371;28;20918;-58
2022/03/27 01:22:48;;;;;;;15.88;10.40;;;;;;;7.94;100.00;102028.78;5030166;28;20082;-58
2022/03/27 01:25:13;;;;;;;15.63;10.07;;;;;;;7.84;100.00;102014.94;5049520;28;20855;-58
2022/03/27 01:27:39;;;;;;;11.52;9.10;;;;;;;7.86;100.00;102025.38;5048032;28;20032;-58
2022/03/27 01:30:05;;;;;;;12.57;8.88;;;;;;;7.83;100.00;102014.97;5049382;28;20109;-58
2022/03/27 01:32:30;;;;;;;12.75;8.85;;;;;;;7.85;100.00;102021.91;5048495;28;20031;-58
2022/03/27 01:34:56;;;;;;;12.93;9.85;;;;;;;7.79;100.00;102008.91;5048482;28;20024;-58
2022/03/27 01:37:22;;;;;;;14.05;9.13;;;;;;;7.80;100.00;102021.09;5049088;28;20024;-58
2022/03/27 01:39:47;;;;;;;13.35;10.10;;;;;;;7.54;100.00;101978.69;5047881;28;20024;-58
2022/03/27 01:42:12;;;;;;;12.20;8.75;;;;;;;7.72;100.00;102012.47;5047042;28;20878;-58
2022/03/27 01:44:38;;;;;;;11.75;9.30;;;;;;;7.71;100.00;102015.97;5047657;28;20035;-58
2022/03/27 01:47:04;;;;;;;11.95;9.15;;;;;;;7.64;100.00;102009.06;5047964;28;20020;-58
2022/03/27 01:49:29;;;;;;;13.27;9.50;;;;;;;7.71;100.00;102015.97;5047730;28;20512;-58
2022/03/27 01:51:55;;;;;;;9.77;8.63;;;;;;;7.67;100.00;102011.69;5030612;28;20028;-58
2022/03/27 01:54:22;;;;;;;12.35;9.38;;;;;;;7.67;100.00;102019.53;5048146;28;20031;-58
2022/03/27 01:56:48;;;;;;;9.65;8.50;;;;;;;7.54;100.00;102007.47;5047085;28;20024;-58
2022/03/27 01:59:14;;;;;;;11.13;8.73;;;;;;;7.50;100.00;102008.41;5047566;28;20175;-58
2022/03/27 02:01:39;;;;;;;12.35;8.40;;;;;;;7.17;100.00;101958.22;5047723;28;20130;-58
2022/03/27 02:04:08;;;;;;;12.13;9.57;;;;;;;7.46;100.00;102012.81;5047323;28;20561;-58
2022/03/27 02:06:37;;;;;;;12.38;9.02;;;;;;;7.43;100.00;102015.47;5043917;28;20035;-58
2022/03/27 02:09:02;;;;;;;11.10;9.65;;;;;;;7.37;100.00;102012.88;5027041;28;20028;-58
2022/03/27 02:11:27;;;;;;;16.95;9.85;;;;;;;7.33;100.00;102007.72;5027225;28;20828;-58
2022/03/27 02:13:53;;;;;;;11.07;9.63;;;;;;;7.19;100.00;101990.44;5011047;28;20043;-58
2022/03/27 02:16:18;;;;;;;16.70;9.30;;;;;;;7.26;100.00;102006.94;5027193;28;20020;-58
2022/03/27 02:18:44;;;;;;;16.38;10.48;;;;;;;7.26;100.00;102006.06;5026973;28;20024;-58
2022/03/27 02:21:09;;;;;;;11.90;9.57;;;;;;;7.26;100.00;102000.81;5027711;28;20142;-58
2022/03/27 02:23:35;;;;;;;20.02;10.68;;;;;;;7.27;100.00;102007.75;5012244;28;20052;-58
2022/03/27 02:26:01;;;;;;;17.15;9.05;;;;;;;7.26;100.00;102008.66;5028556;28;20086;-58
2022/03/27 02:28:26;;;;;;;11.73;9.75;;;;;;;7.26;100.00;102006.06;5028711;28;20898;-58
2022/03/27 02:30:52;;;;;;;13.52;11.05;;;;;;;7.27;100.00;102002.53;5028155;28;20778;-58
2022/03/27 02:33:17;;;;;;;15.38;10.73;;;;;;;7.24;100.00;101997.34;5029723;28;20989;-58
2022/03/27 02:35:43;;;;;;;11.68;9.43;;;;;;;7.17;100.00;101992.19;5027184;28;20888;-58
2022/03/27 02:38:08;;;;;;;12.43;10.55;;;;;;;7.25;100.00;102002.56;5026945;28;20031;-58
2022/03/27 02:40:34;;;;;;;12.38;9.38;;;;;;;7.24;100.00;101999.97;5008744;28;20063;-58
2022/03/27 02:43:00;;;;;;;14.95;10.43;;;;;;;7.16;100.00;102000.91;5027825;28;20867;-58
2022/03/27 02:45:26;;;;;;;15.18;10.82;;;;;;;7.02;100.00;101987.13;5026367;28;20033;-58
2022/03/27 02:47:53;;;;;;;18.77;10.85;;;;;;;7.06;100.00;101994.03;5026527;28;20127;-58
2022/03/27 02:50:19;;;;;;;12.13;10.63;;;;;;;7.10;100.00;101993.13;5026482;28;20037;-58
2022/03/27 02:52:44;;;;;;;15.65;11.00;;;;;;;7.08;100.00;101991.44;5026871;28;20035;-58
2022/03/27 02:55:11;;;;;;;13.63;11.00;;;;;;;6.79;100.00;101952.53;5027808;28;20043;-58
2022/03/27 02:57:36;;;;;;;16.30;10.43;;;;;;;7.04;100.00;101985.38;5026308;28;20882;-58
2022/03/27 03:00:04;;;;;;;14.13;11.05;;;;;;;7.12;100.00;101999.22;5026135;28;20026;-58
2022/03/27 03:02:29;;;;;;;16.17;11.98;;;;;;;6.62;100.00;101913.50;5026192;28;20923;-58
2022/03/27 03:04:55;;;;;;;14.68;11.05;;;;;;;7.09;100.00;101994.03;5027540;28;20135;-58
2022/03/27 03:07:20;;;;;;;16.67;11.63;;;;;;;7.05;100.00;101997.56;5027360;28;20072;-58
2022/03/27 03:09:46;;;;;;;12.52;11.15;;;;;;;7.03;100.00;101996.69;5027344;28;20029;-58
2022/03/27 03:12:12;;;;;;;16.95;11.82;;;;;;;7.04;100.00;101994.94;5026311;28;20383;-58
2022/03/27 03:14:37;;;;;;;15.40;11.80;;;;;;;7.06;100.00;101988.81;5025944;28;20048;-58
2022/03/27 03:17:04;;;;;;;17.90;12.52;;;;;;;6.94;100.00;101983.72;5027075;28;20132;-58
2022/03/27 03:19:30;;;;;;;17.30;11.93;;;;;;;7.01;100.00;102001.06;5031134;28;20893;-58
2022/03/27 03:21:55;;;;;;;20.13;12.02;;;;;;;6.90;100.00;101974.19;5027862;28;20121;-58
2022/03/27 03:24:21;;;;;;;17.75;13.13;;;;;;;6.96;100.00;101984.56;5047238;28;20871;-58
2022/03/27 03:26:48;;;;;;;15.45;11.68;;;;;;;6.92;100.00;101995.94;5045870;28;20284;-58
2022/03/27 03:29:14;;;;;;;17.90;13.45;;;;;;;6.89;100.00;101989.88;5046187;28;20024;-58
2022/03/27 03:31:39;;;;;;;17.27;12.82;;;;;;;6.91;100.00;101994.22;5045612;28;20028;-58
2022/03/27 03:34:04;;;;;;;22.95;14.43;;;;;;;6.43;100.00;101919.78;5045507;28;20893;-58
2022/03/27 03:36:30;;;;;;;15.95;13.23;;;;;;;6.85;100.00;101981.22;5047988;28;20024;-58
2022/03/27 03:38:55;;;;;;;18.30;14.27;;;;;;;6.88;100.00;101994.25;5047003;28;20032;-59
2022/03/27 03:41:20;;;;;;;20.05;14.90;;;;;;;6.83;100.00;101990.78;5045674;28;20028;-58
2022/03/27 03:43:46;;;;;;;18.45;15.05;;;;;;;6.83;100.00;101993.41;5045800;28;20038;-58
2022/03/27 03:46:11;;;;;;;16.38;13.43;;;;;;;6.81;100.00;101992.56;5045767;28;20036;-58
2022/03/27 03:48:37;;;;;;;19.60;13.73;;;;;;;6.76;100.00;101983.88;5046483;28;20129;-58
2022/03/27 03:51:02;;;;;;;19.92;13.75;;;;;;;6.69;100.00;101977.00;5046977;28;20862;-58
2022/03/27 03:53:28;;;;;;;28.88;14.60;;;;;;;6.60;100.00;101977.06;5045849;28;20117;-58
2022/03/27 03:55:54;;;;;;;17.15;13.77;;;;;;;6.68;100.00;101990.94;5046610;28;20054;-58
2022/03/27 03:58:19;;;;;;;17.95;14.07;;;;;;;6.63;100.00;101982.25;5045885;28;20032;-58
2022/03/27 04:00:46;;;;;;;22.48;16.55;;;;;;;6.59;100.00;101975.34;5045322;28;20129;-58
2022/03/27 04:03:13;;;;;;;24.15;15.60;;;;;;;6.60;100.00;101987.50;5046270;28;20116;-58
2022/03/27 04:05:38;;;;;;;19.13;14.27;;;;;;;6.55;100.00;101979.75;5049201;28;20085;-58
2022/03/27 04:08:04;;;;;;;19.75;15.35;;;;;;;6.49;100.00;101984.16;5049728;28;20024;-58
2022/03/27 04:10:29;;;;;;;17.48;13.93;;;;;;;6.47;100.00;101985.88;5050805;28;20984;-58
2022/03/27 04:12:54;;;;;;;21.98;13.95;;;;;;;6.41;100.00;101992.03;5049456;28;20758;-58
2022/03/27 04:15:20;;;;;;;18.63;15.07;;;;;;;6.29;100.00;101975.56;5050059;28;20032;-58
2022/03/27 04:17:46;;;;;;;20.63;16.27;;;;;;;6.36;100.00;101993.78;5051912;28;20062;-58
2022/03/27 04:20:13;;;;;;;20.58;15.60;;;;;;;6.36;100.00;101992.91;5049283;28;20920;-58
2022/03/27 04:22:40;;;;;;;20.65;16.23;;;;;;;6.28;100.00;101979.94;5050967;28;20269;-58
2022/03/27 04:25:06;;;;;;;21.23;16.10;;;;;;;6.30;100.00;101987.75;5031407;28;20025;-58
2022/03/27 04:27:31;;;;;;;20.83;16.40;;;;;;;6.25;100.00;101984.31;5049971;28;20055;-58
2022/03/27 04:29:56;;;;;;;20.30;15.85;;;;;;;5.74;100.00;101904.63;5050139;28;20073;-58
2022/03/27 04:32:22;;;;;;;19.67;16.55;;;;;;;6.10;100.00;101967.88;5050731;28;20175;-58
2022/03/27 04:34:50;;;;;;;20.73;16.50;;;;;;;6.13;100.00;101991.34;5050119;28;20020;-58
2022/03/27 04:37:16;;;;;;;19.40;15.73;;;;;;;6.09;100.00;101984.41;5049357;28;20035;-58
2022/03/27 04:39:41;;;;;;;22.05;18.30;;;;;;;6.14;100.00;101982.66;5048888;28;20024;-58
2022/03/27 04:42:07;;;;;;;19.20;16.92;;;;;;;6.14;100.00;101993.09;5051284;28;20897;-58
2022/03/27 04:44:32;;;;;;;23.38;18.67;;;;;;;6.00;100.00;101976.66;5048627;28;20028;-58
2022/03/27 04:46:58;;;;;;;20.95;18.25;;;;;;;6.18;100.00;101993.06;5048694;28;20021;-58
2022/03/27 04:49:23;;;;;;;29.73;18.45;;;;;;;6.18;100.00;102000.00;5048273;28;20034;-58
2022/03/27 04:51:49;;;;;;;35.13;22.38;;;;;;;6.24;100.00;102003.47;5048155;28;20046;-58
2022/03/27 04:54:14;;;;;;;23.65;19.80;;;;;;;6.30;100.00;102001.69;5050054;28;20820;-58
2022/03/27 04:56:40;;;;;;;23.33;20.83;;;;;;;6.34;100.00;101994.69;5048387;28;20025;-58
2022/03/27 04:59:05;;;;;;;24.02;20.75;;;;;;;6.42;100.00;101998.13;5048002;28;20020;-58
2022/03/27 05:01:30;;;;;;;32.30;23.25;;;;;;;6.47;100.00;101996.31;5048042;28;20078;-58
2022/03/27 05:03:56;;;;;;;31.42;24.52;;;;;;;6.56;100.00;101996.25;5047290;28;20919;-58
2022/03/27 05:06:21;;;;;;;31.55;26.30;;;;;;;6.63;100.00;102008.38;5047777;28;20036;-58
2022/03/27 05:08:47;;;;;;;28.27;24.23;;;;;;;6.68;100.00;102001.38;5048710;28;20029;-58
2022/03/27 05:11:12;;;;;;;31.92;25.77;;;;;;;6.73;100.00;102001.31;5048146;28;20036;-58
2022/03/27 05:13:38;;;;;;;36.10;28.67;;;;;;;6.68;100.00;101988.31;5047794;28;20035;-58
2022/03/27 05:16:04;;;;;;;35.60;27.35;;;;;;;6.76;100.00;102001.34;5047041;28;20916;-58
2022/03/27 05:18:29;;;;;;;31.15;26.95;;;;;;;6.75;100.00;102003.06;5047536;28;20081;-58
2022/03/27 05:20:54;;;;;;;51.70;29.48;;;;;;;6.26;100.00;101923.41;5049703;28;20028;-58
2022/03/27 05:23:20;;;;;;;41.13;27.83;;;;;;;6.69;100.00;101987.47;5048682;28;20187;-58
2022/03/27 05:25:48;;;;;;;46.70;29.50;;;;;;;6.61;100.00;101989.25;5047296;28;20972;-58
2022/03/27 05:28:14;;;;;;;38.05;28.50;;;;;;;6.77;100.00;102013.47;5047985;28;20779;-58
2022/03/27 05:30:39;;;;;;;46.90;31.38;;;;;;;6.77;100.00;102016.97;5047348;28;20024;-58
2022/03/27 05:33:05;;;;;;;45.80;30.00;;;;;;;6.78;100.00;102023.94;5047232;28;20933;-58
2022/03/27 05:35:31;;;;;;;54.38;31.48;;;;;;;6.60;100.00;101996.22;5046676;28;20874;-58
2022/03/27 05:37:57;;;;;;;72.45;33.20;;;;;;;6.70;100.00;102023.13;5046944;28;20049;-58
2022/03/27 05:40:23;;;;;;;46.55;34.92;;;;;;;6.75;100.00;102031.81;5047506;28;20068;-58
2022/03/27 05:42:49;;;;;;;72.63;37.38;;;;;;;6.72;100.00;102029.22;5048439;28;20097;-58
2022/03/27 05:45:16;;;;;;;91.88;37.72;;;;;;;6.73;100.00;102030.94;5048296;28;20028;-58
2022/03/27 05:47:42;;;;;;;78.07;34.85;;;;;;;6.73;100.00;102038.75;5046672;28;20052;-58
2022/03/27 05:50:12;;;;;;;51.33;36.63;;;;;;;6.64;100.00;102026.66;5047414;28;20026;-59
2022/03/27 05:52:37;;;;;;;88.70;37.25;;;;;;;6.64;100.00;102025.78;5048197;28;20082;-58
2022/03/27 05:55:04;;;;;;;54.13;37.40;;;;;;;6.75;100.00;102042.25;5047653;28;20891;-58
2022/03/27 05:57:30;;;;;;;69.72;39.42;;;;;;;6.60;100.00;102013.63;5046973;28;20961;-58
2022/03/27 05:59:55;;;;;;;63.40;38.45;;;;;;;6.77;100.00;102043.09;5048022;28;20040;-58
2022/03/27 06:02:21;;;;;;;62.20;40.17;;;;;;;6.80;100.00;102043.06;5047352;28;20415;-59
2022/03/27 06:04:46;;;;;;;55.70;38.72;;;;;;;6.82;100.00;102050.91;5045789;28;20028;-58
2022/03/27 06:07:11;;;;;;;62.15;38.00;;;;;;;6.84;100.00;102044.78;5047224;28;20865;-58
2022/03/27 06:09:37;;;;;;;68.10;40.55;;;;;;;6.76;100.00;102030.91;5046509;28;20134;-58
2022/03/27 06:12:04;;;;;;;72.75;44.97;;;;;;;6.91;100.00;102056.91;5035022;28;20033;-58
2022/03/27 06:14:29;;;;;;;75.10;43.50;;;;;;;6.89;100.00;102048.22;5043968;28;20027;-58
2022/03/27 06:16:55;;;;;;;66.03;43.25;;;;;;;6.84;100.00;102031.72;5047147;28;20028;-58
2022/03/27 06:19:21;;;;;;;94.32;46.33;;;;;;;6.97;100.00;102059.47;5047114;28;20350;-58
2022/03/27 06:21:46;;;;;;;71.18;44.25;;;;;;;6.99;100.00;102059.47;5047087;28;20027;-58
2022/03/27 06:24:12;;;;;;;77.75;44.60;;;;;;;6.96;100.00;102065.56;5047575;28;20907;-58
2022/03/27 06:26:38;;;;;;;67.15;46.65;;;;;;;7.00;100.00;102056.81;5045890;28;20809;-58
2022/03/27 06:29:03;;;;;;;98.75;47.13;;;;;;;7.07;100.00;102068.97;5047480;28;20873;-58
2022/03/27 06:31:29;;;;;;;62.15;46.75;;;;;;;7.07;100.00;102068.97;5046944;28;20024;-58
2022/03/27 06:33:54;;;;;;;62.13;45.20;;;;;;;7.06;100.00;102056.75;5047443;28;20032;-58
2022/03/27 06:36:20;;;;;;;64.80;46.50;;;;;;;7.23;100.00;102084.50;5046795;28;20027;-58
2022/03/27 06:38:45;;;;;;;76.43;50.35;;;;;;;7.24;100.00;102067.94;5029317;28;20139;-58
2022/03/27 06:41:10;;;;;;;74.35;47.58;;;;;;;7.30;100.00;102073.13;5046221;28;20024;-58
2022/03/27 06:43:37;;;;;;;84.97;50.30;;;;;;;7.34;100.00;102080.03;5046559;28;20032;-58
2022/03/27 06:46:03;;;;;;;108.50;54.05;;;;;;;7.35;100.00;102066.97;5046066;28;20788;-58
2022/03/27 06:48:28;;;;;;;88.78;51.38;;;;;;;7.34;100.00;102062.59;5033907;28;20065;-58
2022/03/27 06:50:54;;;;;;;70.82;49.28;;;;;;;7.40;100.00;102064.31;5047236;28;20431;-58
2022/03/27 06:53:21;;;;;;;102.40;53.35;;;;;;;7.40;100.00;102066.91;5027725;28;20909;-58
2022/03/27 06:55:49;;;;;;;88.88;51.33;;;;;;;7.46;100.00;102067.72;5045746;28;20094;-58
2022/03/27 06:58:15;;;;;;;100.50;54.70;;;;;;;7.47;100.00;102068.59;5047120;28;20137;-58
2022/03/27 07:03:24;;;;;;;100.90;53.15;;;;;;;7.34;100.00;102046.91;5046922;28;20050;-58
2022/03/27 07:05:50;;;;;;;99.35;56.95;;;;;;;7.51;100.00;102071.13;5046170;28;20044;-58
2022/03/27 07:08:17;;;;;;;86.50;57.30;;;;;;;7.47;100.00;102058.13;5046733;28;20098;-58
2022/03/27 07:10:44;;;;;;;94.05;56.88;;;;;;;7.64;100.00;102066.63;5029100;28;20078;-58
2022/03/27 07:13:11;;;;;;;129.50;57.10;;;;;;;7.69;100.00;102067.47;5045490;28;20036;-58
2022/03/27 07:15:37;;;;;;;86.25;56.30;;;;;;;7.69;100.00;102064.84;5047799;28;20809;-58
2022/03/27 07:18:03;;;;;;;128.35;58.08;;;;;;;7.64;100.00;102057.03;5045043;28;20132;-58
2022/03/27 07:20:30;;;;;;;118.45;61.15;;;;;;;7.73;100.00;102069.16;5045979;28;20881;-58
2022/03/27 07:22:58;;;;;;;93.18;59.05;;;;;;;7.75;100.00;102064.75;5046537;28;20032;-58
2022/03/27 07:25:26;;;;;;;98.43;58.45;;;;;;;7.81;100.00;102064.69;5027312;28;20024;-58
2022/03/27 07:27:51;;;;;;;104.70;62.13;;;;;;;7.86;100.00;102067.25;5045015;28;20035;-58
2022/03/27 07:30:18;;;;;;;105.63;64.47;;;;;;;7.91;100.00;102071.53;5046288;28;20031;-58
2022/03/27 07:32:44;;;;;;;95.00;63.50;;;;;;;7.53;100.00;101990.06;5045649;28;20027;-58
2022/03/27 07:35:10;;;;;;;104.50;61.53;;;;;;;8.05;100.00;102064.38;5045390;28;20032;-58
2022/03/27 07:37:36;;;;;;;111.95;61.72;;;;;;;8.06;100.00;102080.97;5045539;28;20028;-58
2022/03/27 07:40:03;;;;;;;145.43;50.40;;;;;;;8.04;100.00;102057.41;5044343;28;20028;-58
2022/03/27 07:42:30;;;;;;;86.50;52.20;;;;;;;8.11;100.00;102063.47;5044943;28;20939;-58
2022/03/27 07:44:56;;;;;;;84.90;53.08;;;;;;;8.14;100.00;102064.25;5045592;28;20775;-58
2022/03/27 07:47:21;;;;;;;73.70;49.90;;;;;;;8.18;100.00;102060.72;5045258;28;20089;-58
2022/03/27 07:49:46;;;;;;;79.70;50.92;;;;;;;8.08;100.00;102030.31;5044677;28;20742;-58
2022/03/27 07:52:12;;;;;;;76.65;47.63;;;;;;;8.22;100.00;102048.44;5045248;28;20060;-58
2022/03/27 07:54:37;;;;;;;66.15;46.35;;;;;;;8.30;100.00;102045.75;5045101;28;20865;-58
2022/03/27 07:57:03;;;;;;;76.50;45.85;;;;;;;8.43;100.00;102061.28;5046036;28;20080;-58
2022/03/27 07:59:29;;;;;;;83.65;49.80;;;;;;;8.48;100.00;102066.47;5045925;28;20785;-58
2022/03/27 08:01:54;;;;;;;66.85;46.72;;;;;;;8.33;100.00;102037.84;5045358;28;20873;-58
2022/03/27 08:04:19;;;;;;;71.63;46.90;;;;;;;8.54;100.00;102068.97;5046710;28;20028;-59
2022/03/27 08:06:47;;;;;;;78.88;49.35;;;;;;;8.58;100.00;102071.50;5045409;28;20118;-59
2022/03/27 08:09:13;;;;;;;101.15;51.28;;;;;;;8.68;100.00;102075.75;5046598;28;20833;-59
2022/03/27 08:11:41;;;;;;;78.35;49.53;;;;;;;8.68;100.00;102069.63;5044686;28;20903;-59
2022/03/27 08:14:08;;;;;;;71.75;47.53;;;;;;;8.71;100.00;102077.44;5046543;28;20107;-58
2022/03/27 08:16:34;;;;;;;77.63;48.30;;;;;;;8.51;100.00;102034.97;5046999;28;20035;-59
2022/03/27 08:18:59;;;;;;;73.28;46.80;;;;;;;8.71;100.00;102064.34;5044474;28;20036;-59
2022/03/27 08:21:25;;;;;;;65.28;46.45;;;;;;;8.64;100.00;102060.09;5045098;28;21026;-59
2022/03/27 08:23:50;;;;;;;96.25;48.35;;;;;;;8.64;100.00;102060.09;5045328;28;20027;-59
2022/03/27 08:29:03;;;;;;;76.43;44.00;;;;;;;8.65;100.00;102064.44;5045797;28;20047;-58
2022/03/27 08:31:29;;;;;;;67.53;41.47;;;;;;;8.17;100.00;101996.16;5027878;28;20090;-59
2022/03/27 08:33:55;;;;;;;77.20;38.00;;;;;;;8.36;100.00;102022.09;5046186;28;20032;-59
2022/03/27 08:36:20;;;;;;;51.70;38.92;;;;;;;8.73;100.00;102080.91;5045700;28;20038;-59
2022/03/27 08:38:45;;;;;;;48.15;35.40;;;;;;;8.75;100.00;102073.91;5044890;28;20036;-55
2022/03/27 08:41:11;;;;;;;50.30;35.75;;;;;;;8.77;100.00;102077.34;5045431;28;20028;-54
2022/03/27 08:43:37;;;;;;;55.30;35.33;;;;;;;8.78;100.00;102075.59;5044606;28;20114;-51
2022/03/27 08:46:04;;;;;;;55.15;33.20;;;;;;;8.75;100.00;102073.91;5042596;28;20021;-51
2022/03/27 08:48:31;;;;;;;40.08;31.83;;;;;;;8.77;100.00;102072.09;5045171;28;20036;-53
2022/03/27 08:51:10;;;;;;;50.47;32.67;;;;;;;8.82;100.00;102078.13;5029814;28;20876;-54
2022/03/27 08:53:40;;;;;;;36.97;30.15;;;;;;;8.82;100.00;102078.13;5028147;28;20135;-55
2022/03/27 08:56:08;;;;;;;43.97;33.85;;;;;;;8.90;100.00;102076.25;5048585;28;20039;-53
2022/03/27 08:58:39;;;;;;;49.88;32.65;;;;;;;8.99;100.00;102080.50;5049578;28;20190;-53
2022/03/27 09:01:05;;;;;;;45.13;33.03;;;;;;;9.04;100.00;102076.91;5048304;28;20054;-55
2022/03/27 09:03:31;;;;;;;44.70;34.35;;;;;;;8.96;100.00;102068.28;5050123;28;20031;-54
2022/03/27 09:05:59;;;;;;;45.88;33.17;;;;;;;8.79;100.00;102038.88;5048258;28;20810;-52
2022/03/27 09:08:24;;;;;;;61.80;34.63;;;;;;;9.06;100.00;102082.97;5048156;28;20032;-53
2022/03/27 09:10:50;;;;;;;43.28;30.63;;;;;;;9.01;100.00;102082.19;5049624;28;20032;-54
2022/03/27 09:13:18;;;;;;;38.35;31.45;;;;;;;9.04;100.00;102087.38;5050728;28;20905;-55
2022/03/27 09:15:43;;;;;;;38.70;31.73;;;;;;;9.05;100.00;102083.00;5056809;28;20711;-54
2022/03/27 09:18:11;;;;;;;45.75;32.75;;;;;;;9.11;100.00;102077.66;5049723;28;20194;-54
2022/03/27 09:20:45;;;;;;;38.53;30.83;;;;;;;9.18;100.00;102082.78;5048835;28;20451;-55
2022/03/27 09:23:18;;;;;;;44.88;31.92;;;;;;;9.22;100.00;102086.22;5048907;28;20907;-55
2022/03/27 09:26:02;;;;;;;40.90;30.60;;;;;;;9.27;100.00;102078.25;5048017;28;20028;-54
2022/03/27 09:28:39;;;;;;;41.65;32.40;;;;;;;9.32;100.00;102086.91;5043748;28;20049;-54
2022/03/27 09:31:06;;;;;;;43.97;33.40;;;;;;;9.32;100.00;102086.91;5046962;28;20031;-52
2022/03/27 09:33:33;;;;;;;46.08;33.15;;;;;;;9.34;100.00;102085.13;5048415;28;20024;-53
2022/03/27 09:36:12;;;;;;;44.03;32.42;;;;;;;9.34;100.00;102086.00;5049026;28;20889;-56
2022/03/27 09:38:38;;;;;;;41.53;31.08;;;;;;;9.14;100.00;102044.38;5048097;28;20043;-54
2022/03/27 09:41:05;;;;;;;44.67;31.33;;;;;;;9.38;100.00;102086.78;5048827;28;20052;-54
2022/03/27 09:43:30;;;;;;;48.08;33.17;;;;;;;9.33;100.00;102081.63;5049982;28;20143;-53
2022/03/27 09:46:01;;;;;;;53.00;32.75;;;;;;;9.28;100.00;102069.50;5051306;28;20039;-54
2022/03/27 09:48:28;;;;;;;41.47;32.28;;;;;;;9.41;100.00;102084.13;5051856;28;20093;-55
2022/03/27 09:50:54;;;;;;;44.40;34.40;;;;;;;9.47;100.00;102079.63;5053016;28;20024;-55
2022/03/27 09:53:32;;;;;;;44.03;33.47;;;;;;;9.58;100.00;102068.91;5056995;28;20035;-55
2022/03/27 09:55:58;;;;;;;48.60;34.65;;;;;;;9.68;100.00;102075.72;5050073;28;20921;-52
2022/03/27 09:58:41;;;;;;;53.35;34.47;;;;;;;9.75;100.00;102079.97;5057904;28;20028;-58
2022/03/27 10:01:22;;;;;;;43.20;32.15;;;;;;;9.72;100.00;102069.53;5055211;28;20141;-52
2022/03/27 10:04:03;;;;;;;41.67;31.85;;;;;;;9.77;100.00;102074.69;5055213;28;20032;-55
2022/03/27 10:06:46;;;;;;;52.95;32.25;;;;;;;9.85;100.00;102088.50;5062590;28;20938;-55
2022/03/27 10:09:12;;;;;;;45.38;33.00;;;;;;;9.70;100.00;102063.44;5065363;28;20082;-55
2022/03/27 10:11:40;;;;;;;44.50;31.52;;;;;;;9.73;100.00;102068.63;5046388;28;20081;-55
2022/03/27 10:14:06;;;;;;;40.05;31.70;;;;;;;9.75;100.00;102085.22;5069705;28;20060;-52
2022/03/27 10:16:37;;;;;;;48.17;35.20;;;;;;;9.79;100.00;102084.25;5054228;28;20028;-51
2022/03/27 10:19:06;;;;;;;48.72;35.50;;;;;;;9.83;100.00;102075.44;5047389;28;20881;-54
2022/03/27 10:21:33;;;;;;;55.58;36.58;;;;;;;9.95;100.00;102077.81;5049030;28;20035;-52
2022/03/27 10:24:19;;;;;;;52.78;36.88;;;;;;;9.92;100.00;102050.75;5052555;28;20037;-50
2022/03/27 10:26:45;;;;;;;54.00;37.22;;;;;;;9.74;100.00;102017.84;5040205;28;20030;-51
2022/03/27 10:29:13;;;;;;;52.35;35.92;;;;;;;10.04;100.00;102043.47;5050216;28;20035;-54
2022/03/27 10:31:38;;;;;;;62.15;38.97;;;;;;;10.38;100.00;102063.75;5046382;28;20303;-51
2022/03/27 10:34:06;;;;;;;49.42;35.67;;;;;;;10.44;100.00;102056.63;5046335;28;20206;-50
2022/03/27 10:36:57;;;;;;;43.28;33.85;;;;;;;10.57;100.00;102058.06;5028123;28;20127;-49
2022/03/27 10:39:30;;;;;;;41.75;34.42;;;;;;;10.65;100.00;102055.22;5032240;28;20113;-48
2022/03/27 10:42:09;;;;;;;49.78;33.65;;;;;;;10.68;100.00;102047.28;5028046;28;20028;-51
2022/03/27 10:45:00;;;;;;;46.92;34.00;;;;;;;10.76;100.00;102055.84;5010166;28;20024;-51
2022/03/27 10:47:26;;;;;;;51.70;34.72;;;;;;;10.76;100.00;102055.84;5036960;28;20040;-51
2022/03/27 10:50:00;;;;;;;49.05;33.88;;;;;;;10.84;100.00;102053.91;5050520;28;20032;-54
2022/03/27 10:52:26;;;;;;;;;;;;;;;10.96;100.00;102050.97;5043683;28;20028;-54
2022/03/27 10:54:57;;;;;;;51.45;34.40;;;;;;;11.01;100.00;102046.47;5048291;28;19911;-55
2022/03/27 10:57:34;;;;;;;57.65;37.85;;;;;;;10.96;100.00;102039.56;5046307;28;20020;-55
2022/03/27 10:59:59;;;;;;;52.88;37.22;;;;;;;11.03;100.00;102038.53;5048066;28;20052;-55
2022/03/27 11:02:45;;;;;;;59.65;37.58;;;;;;;11.15;100.00;102035.59;5045399;28;20030;-53
2022/03/27 11:05:29;;;;;;;59.55;36.22;;;;;;;11.05;100.00;102037.56;5042122;28;20024;-54
2022/03/27 11:08:19;;;;;;;52.25;37.20;;;;;;;11.01;100.00;102041.19;5048164;28;20975;-58
2022/03/27 11:10:50;;;;;;;51.42;35.38;;;;;;;10.87;100.00;102031.94;5029173;28;20028;-53
2022/03/27 11:13:27;;;;;;;54.17;37.47;;;;;;;10.85;100.00;102031.13;5049012;28;20090;-53
2022/03/27 11:16:08;;;;;;;48.53;37.83;;;;;;;10.78;100.00;102038.28;5050416;28;20032;-50